LFST 192000Z AUTO 01004KT 9999 FEW048 15/12 Q1011 NOSIG

TAF LFST 191700Z 1918/2018 VRB05KT 9999 FEW035 SCT050 TEMPO 1918/1920 4000 SHRA FEW025CB TEMPO 1923/2006 2000 BR BKN001 PROB40 TEMPO 2004/2007 0500 FG VV/// TEMPO 2011/2016 FEW040TCU

 

Temperature in degrees Celsius: 15
Dew Point Temperature in degrees Celsius: 12

 

http://openflyers.com/case/icingChart.php?chart=2&temperature=15&dewPoint=12